Colonia, New Jersey
Current Conditions -  °F | °C
As of 9:55 PM on Saturday 20 Dec 2014 (Local Time) from KLDJ Reporting Station
Overcast Overcast  
Wind Chill: 31°   Ceiling: 3300
Heat Index: 37°   Visibility: 10mi
Dew Point: 25°   Wind: 7mph
Humidity: 63%   Direction: 340°NNW
Pressure: 30.32"   Gusts: NA
Location:  40.6°N, 74.33°W
Report Text: KLDJ 210255Z AUTO 34006KT 10SM OVC033 03/M04 A3032 RMK AO2 T00251039
Loading
Personal Weather Stations






























Interactive Weather Map New forecast layout! Learn more

10-Day Weather Forecast

Advertisements
Track Severe Weather on mobile